| Date | Time | Temp. (oF) | Dew Point (oF) | Rel. Hum. (%) | Press. (in.) | Wind Dir. | Wind Speed (mph) | Hourly Rainfall (in.) |
|
|---|---|---|---|---|---|---|---|---|---|
| 1 | 03/09 | 00:00 | 60 | 52 | 76 | 29.91 | WSW | 12 | 0.00 |
| 2 | 03/08 | 23:00 | 64 | 49 | 59 | 29.87 | SSE | 11 | 0.00 |
| 3 | 03/08 | 22:00 | 65 | 49 | 58 | 29.87 | S | 11 | 0.00 |
| 4 | 03/08 | 21:00 | 65 | 48 | 56 | 29.90 | SSE | 8 | 0.00 |
| 5 | 03/08 | 20:00 | 66 | 48 | 53 | 29.91 | S | 11 | 0.00 |
| 6 | 03/08 | 19:00 | 66 | 47 | 51 | 29.93 | S | 11 | 0.00 |
| 7 | 03/08 | 18:00 | 67 | 48 | 52 | 29.94 | SSE | 10 | 0.00 |
| 8 | 03/08 | 17:00 | 68 | 50 | 54 | 29.97 | S | 13 | 0.00 |
| 9 | 03/08 | 16:00 | 69 | 49 | 50 | 29.99 | S | 16 | 0.00 |
| 10 | 03/08 | 15:00 | 70 | 50 | 51 | 29.99 | S | 17 | 0.00 |
| 11 | 03/08 | 14:00 | 70 | 50 | 50 | 30.04 | S | 20 | 0.00 |
| 12 | 03/08 | 13:00 | 69 | 51 | 54 | 30.07 | S | 15 | 0.00 |
| 13 | 03/08 | 12:00 | 65 | 50 | 59 | 30.10 | S | 13 | 0.00 |
| 14 | 03/08 | 11:00 | 63 | 51 | 67 | 30.13 | S | 11 | 0.00 |
| 15 | 03/08 | 10:00 | 60 | 50 | 72 | 30.18 | SSE | 14 | 0.00 |
| 16 | 03/08 | 09:00 | 57 | 51 | 82 | 30.22 | SSE | 11 | 0.00 |
| 17 | 03/08 | 08:00 | 52 | 49 | 92 | 30.24 | SSE | 13 | 0.00 |
| 18 | 03/08 | 07:00 | 51 | 49 | 93 | 30.26 | S | 10 | 0.00 |
| 19 | 03/08 | 06:00 | 50 | 47 | 92 | 30.27 | SSE | 7 | 0.00 |
| 20 | 03/08 | 05:00 | 50 | 46 | 89 | 30.28 | SE | 6 | 0.00 |
| 21 | 03/08 | 04:00 | 51 | 46 | 84 | 30.28 | S | 8 | 0.00 |
| 22 | 03/08 | 03:00 | 49 | 44 | 84 | 30.29 | SE | 2 | 0.00 |
| 23 | 03/08 | 02:00 | 51 | 45 | 80 | 30.30 | SSE | 4 | 0.00 |
| 24 | 03/08 | 01:00 | 52 | 44 | 75 | 30.31 | SSE | 5 | 0.00 |